sensor_id;sensor_type;location;lat;lon;timestamp;P1;durP1;ratioP1;P2;durP2;ratioP2
24859;SDS011;12936;52.006;4.350;2023-02-04T00:01:41;18.10;;;4.63;;
24859;SDS011;12936;52.006;4.350;2023-02-04T00:04:11;19.57;;;4.07;;
24859;SDS011;12936;52.006;4.350;2023-02-04T00:06:41;18.57;;;3.73;;
24859;SDS011;12936;52.006;4.350;2023-02-04T00:09:10;25.17;;;9.63;;
24859;SDS011;12936;52.006;4.350;2023-02-04T00:11:38;15.90;;;4.03;;
24859;SDS011;12936;52.006;4.350;2023-02-04T00:14:07;21.53;;;3.80;;
24859;SDS011;12936;52.006;4.350;2023-02-04T00:16:38;12.27;;;3.43;;
24859;SDS011;12936;52.006;4.350;2023-02-04T00:19:27;14.30;;;3.97;;
24859;SDS011;12936;52.006;4.350;2023-02-04T00:22:01;19.30;;;3.70;;
24859;SDS011;12936;52.006;4.350;2023-02-04T00:24:33;13.60;;;3.40;;
24859;SDS011;12936;52.006;4.350;2023-02-04T00:27:02;14.87;;;3.53;;
24859;SDS011;12936;52.006;4.350;2023-02-04T00:29:33;13.73;;;3.17;;
24859;SDS011;12936;52.006;4.350;2023-02-04T00:32:03;16.73;;;3.67;;
24859;SDS011;12936;52.006;4.350;2023-02-04T00:34:34;19.57;;;4.33;;
24859;SDS011;12936;52.006;4.350;2023-02-04T00:37:06;13.43;;;3.87;;
24859;SDS011;12936;52.006;4.350;2023-02-04T00:39:34;14.77;;;3.07;;
24859;SDS011;12936;52.006;4.350;2023-02-04T00:42:02;15.10;;;2.93;;
24859;SDS011;12936;52.006;4.350;2023-02-04T00:44:31;21.20;;;4.13;;
24859;SDS011;12936;52.006;4.350;2023-02-04T00:47:08;19.83;;;3.60;;
24859;SDS011;12936;52.006;4.350;2023-02-04T00:49:36;15.87;;;3.20;;
24859;SDS011;12936;52.006;4.350;2023-02-04T00:52:07;15.87;;;3.07;;
24859;SDS011;12936;52.006;4.350;2023-02-04T00:54:35;18.33;;;3.53;;
24859;SDS011;12936;52.006;4.350;2023-02-04T00:57:03;22.90;;;3.50;;
24859;SDS011;12936;52.006;4.350;2023-02-04T00:59:33;16.40;;;3.20;;
24859;SDS011;12936;52.006;4.350;2023-02-04T01:02:01;17.03;;;3.40;;
24859;SDS011;12936;52.006;4.350;2023-02-04T01:04:31;17.23;;;3.30;;
24859;SDS011;12936;52.006;4.350;2023-02-04T01:06:59;18.00;;;3.27;;
24859;SDS011;12936;52.006;4.350;2023-02-04T01:09:29;14.90;;;3.00;;
24859;SDS011;12936;52.006;4.350;2023-02-04T01:11:58;16.07;;;3.50;;
24859;SDS011;12936;52.006;4.350;2023-02-04T01:14:26;16.33;;;3.23;;
24859;SDS011;12936;52.006;4.350;2023-02-04T01:16:55;18.13;;;3.00;;
24859;SDS011;12936;52.006;4.350;2023-02-04T01:19:24;15.90;;;2.83;;
24859;SDS011;12936;52.006;4.350;2023-02-04T01:21:56;12.67;;;2.63;;
24859;SDS011;12936;52.006;4.350;2023-02-04T01:24:45;12.07;;;2.57;;
24859;SDS011;12936;52.006;4.350;2023-02-04T01:27:15;14.33;;;2.90;;
24859;SDS011;12936;52.006;4.350;2023-02-04T01:29:43;13.97;;;2.87;;
24859;SDS011;12936;52.006;4.350;2023-02-04T01:32:12;16.20;;;2.70;;
24859;SDS011;12936;52.006;4.350;2023-02-04T01:34:40;21.43;;;3.17;;
24859;SDS011;12936;52.006;4.350;2023-02-04T01:37:10;16.67;;;3.10;;
24859;SDS011;12936;52.006;4.350;2023-02-04T01:39:43;14.83;;;2.80;;
24859;SDS011;12936;52.006;4.350;2023-02-04T01:42:11;16.47;;;3.40;;
24859;SDS011;12936;52.006;4.350;2023-02-04T01:44:40;24.77;;;3.80;;
24859;SDS011;12936;52.006;4.350;2023-02-04T01:47:11;14.80;;;3.00;;
24859;SDS011;12936;52.006;4.350;2023-02-04T01:49:40;19.40;;;2.87;;
24859;SDS011;12936;52.006;4.350;2023-02-04T01:52:10;23.77;;;3.10;;
24859;SDS011;12936;52.006;4.350;2023-02-04T01:54:39;17.07;;;2.87;;
24859;SDS011;12936;52.006;4.350;2023-02-04T01:57:08;15.33;;;2.90;;
24859;SDS011;12936;52.006;4.350;2023-02-04T01:59:42;17.47;;;2.70;;
24859;SDS011;12936;52.006;4.350;2023-02-04T02:05:05;18.40;;;2.57;;
24859;SDS011;12936;52.006;4.350;2023-02-04T02:07:37;18.77;;;2.90;;
24859;SDS011;12936;52.006;4.350;2023-02-04T02:10:06;21.13;;;3.10;;
24859;SDS011;12936;52.006;4.350;2023-02-04T02:12:36;19.90;;;2.80;;
24859;SDS011;12936;52.006;4.350;2023-02-04T02:15:05;16.03;;;2.83;;
24859;SDS011;12936;52.006;4.350;2023-02-04T02:17:34;25.50;;;3.43;;
24859;SDS011;12936;52.006;4.350;2023-02-04T02:20:04;21.30;;;4.43;;
24859;SDS011;12936;52.006;4.350;2023-02-04T02:22:35;19.93;;;2.73;;
24859;SDS011;12936;52.006;4.350;2023-02-04T02:25:14;13.03;;;2.93;;
24859;SDS011;12936;52.006;4.350;2023-02-04T02:27:43;22.03;;;2.83;;
24859;SDS011;12936;52.006;4.350;2023-02-04T02:30:14;15.77;;;2.60;;
24859;SDS011;12936;52.006;4.350;2023-02-04T02:32:47;17.67;;;3.13;;
24859;SDS011;12936;52.006;4.350;2023-02-04T02:35:18;17.47;;;3.00;;
24859;SDS011;12936;52.006;4.350;2023-02-04T02:37:49;16.93;;;2.50;;
24859;SDS011;12936;52.006;4.350;2023-02-04T02:40:20;14.83;;;2.40;;
24859;SDS011;12936;52.006;4.350;2023-02-04T02:42:52;23.00;;;3.40;;
24859;SDS011;12936;52.006;4.350;2023-02-04T02:45:24;15.77;;;2.70;;
24859;SDS011;12936;52.006;4.350;2023-02-04T02:47:55;17.53;;;2.93;;
24859;SDS011;12936;52.006;4.350;2023-02-04T02:50:26;15.37;;;3.10;;
24859;SDS011;12936;52.006;4.350;2023-02-04T02:52:56;16.87;;;2.63;;
24859;SDS011;12936;52.006;4.350;2023-02-04T02:55:26;13.50;;;2.87;;
24859;SDS011;12936;52.006;4.350;2023-02-04T02:57:55;23.60;;;3.53;;
24859;SDS011;12936;52.006;4.350;2023-02-04T03:00:26;23.27;;;3.07;;
24859;SDS011;12936;52.006;4.350;2023-02-04T03:03:00;16.37;;;2.37;;
24859;SDS011;12936;52.006;4.350;2023-02-04T03:05:35;22.00;;;2.97;;
24859;SDS011;12936;52.006;4.350;2023-02-04T03:08:07;22.93;;;3.57;;
24859;SDS011;12936;52.006;4.350;2023-02-04T03:10:39;19.67;;;3.27;;
24859;SDS011;12936;52.006;4.350;2023-02-04T03:13:08;21.47;;;3.47;;
24859;SDS011;12936;52.006;4.350;2023-02-04T03:15:40;20.40;;;3.10;;
24859;SDS011;12936;52.006;4.350;2023-02-04T03:18:11;14.70;;;2.50;;
24859;SDS011;12936;52.006;4.350;2023-02-04T03:20:40;15.03;;;2.60;;
24859;SDS011;12936;52.006;4.350;2023-02-04T03:23:09;19.03;;;2.83;;
24859;SDS011;12936;52.006;4.350;2023-02-04T03:25:39;18.37;;;3.33;;
24859;SDS011;12936;52.006;4.350;2023-02-04T03:28:08;19.27;;;2.97;;
24859;SDS011;12936;52.006;4.350;2023-02-04T03:30:36;21.37;;;4.13;;
24859;SDS011;12936;52.006;4.350;2023-02-04T03:33:05;20.40;;;3.27;;
24859;SDS011;12936;52.006;4.350;2023-02-04T03:35:34;20.83;;;3.20;;
24859;SDS011;12936;52.006;4.350;2023-02-04T03:38:04;21.63;;;2.93;;
24859;SDS011;12936;52.006;4.350;2023-02-04T03:40:34;21.00;;;3.83;;
24859;SDS011;12936;52.006;4.350;2023-02-04T03:43:06;16.07;;;2.63;;
24859;SDS011;12936;52.006;4.350;2023-02-04T03:45:59;21.27;;;2.83;;
24859;SDS011;12936;52.006;4.350;2023-02-04T03:48:28;17.00;;;3.20;;
24859;SDS011;12936;52.006;4.350;2023-02-04T03:50:56;20.50;;;3.33;;
24859;SDS011;12936;52.006;4.350;2023-02-04T03:53:24;19.93;;;3.00;;
24859;SDS011;12936;52.006;4.350;2023-02-04T03:55:54;16.90;;;3.80;;
24859;SDS011;12936;52.006;4.350;2023-02-04T03:58:26;17.03;;;3.97;;
24859;SDS011;12936;52.006;4.350;2023-02-04T04:00:56;23.83;;;3.67;;
24859;SDS011;12936;52.006;4.350;2023-02-04T04:03:26;20.47;;;3.60;;
24859;SDS011;12936;52.006;4.350;2023-02-04T04:05:55;23.83;;;3.17;;
24859;SDS011;12936;52.006;4.350;2023-02-04T04:08:25;20.00;;;3.63;;
24859;SDS011;12936;52.006;4.350;2023-02-04T04:10:54;26.30;;;4.13;;
24859;SDS011;12936;52.006;4.350;2023-02-04T04:13:45;19.00;;;3.20;;
24859;SDS011;12936;52.006;4.350;2023-02-04T04:16:18;17.33;;;3.03;;
24859;SDS011;12936;52.006;4.350;2023-02-04T04:18:47;19.57;;;3.30;;
24859;SDS011;12936;52.006;4.350;2023-02-04T04:21:15;16.27;;;3.00;;
24859;SDS011;12936;52.006;4.350;2023-02-04T04:23:43;19.27;;;3.10;;
24859;SDS011;12936;52.006;4.350;2023-02-04T04:26:35;17.33;;;2.80;;
24859;SDS011;12936;52.006;4.350;2023-02-04T04:29:27;21.03;;;3.53;;
24859;SDS011;12936;52.006;4.350;2023-02-04T04:31:59;21.87;;;3.83;;
24859;SDS011;12936;52.006;4.350;2023-02-04T04:34:33;24.00;;;3.60;;
24859;SDS011;12936;52.006;4.350;2023-02-04T04:37:03;18.37;;;3.10;;
24859;SDS011;12936;52.006;4.350;2023-02-04T04:39:32;23.37;;;3.53;;
24859;SDS011;12936;52.006;4.350;2023-02-04T04:42:01;19.40;;;3.03;;
24859;SDS011;12936;52.006;4.350;2023-02-04T04:44:35;20.53;;;3.20;;
24859;SDS011;12936;52.006;4.350;2023-02-04T04:47:05;21.47;;;3.10;;
24859;SDS011;12936;52.006;4.350;2023-02-04T04:49:35;14.20;;;2.70;;
24859;SDS011;12936;52.006;4.350;2023-02-04T04:52:25;21.20;;;4.03;;
24859;SDS011;12936;52.006;4.350;2023-02-04T04:55:33;19.57;;;3.60;;
24859;SDS011;12936;52.006;4.350;2023-02-04T04:58:21;21.10;;;3.53;;
24859;SDS011;12936;52.006;4.350;2023-02-04T05:00:53;25.83;;;3.87;;
24859;SDS011;12936;52.006;4.350;2023-02-04T05:03:24;23.73;;;3.60;;
24859;SDS011;12936;52.006;4.350;2023-02-04T05:05:54;26.60;;;3.77;;
24859;SDS011;12936;52.006;4.350;2023-02-04T05:08:24;23.47;;;4.30;;
24859;SDS011;12936;52.006;4.350;2023-02-04T05:10:52;20.07;;;3.80;;
24859;SDS011;12936;52.006;4.350;2023-02-04T05:13:22;20.13;;;3.70;;
24859;SDS011;12936;52.006;4.350;2023-02-04T05:15:50;20.53;;;3.77;;
24859;SDS011;12936;52.006;4.350;2023-02-04T05:18:23;23.37;;;3.47;;
24859;SDS011;12936;52.006;4.350;2023-02-04T05:20:55;24.40;;;4.30;;
24859;SDS011;12936;52.006;4.350;2023-02-04T05:23:26;27.20;;;3.60;;
24859;SDS011;12936;52.006;4.350;2023-02-04T05:25:56;22.57;;;3.97;;
24859;SDS011;12936;52.006;4.350;2023-02-04T05:28:26;24.33;;;3.27;;
24859;SDS011;12936;52.006;4.350;2023-02-04T05:31:03;21.43;;;4.63;;
24859;SDS011;12936;52.006;4.350;2023-02-04T05:33:32;16.13;;;3.20;;
24859;SDS011;12936;52.006;4.350;2023-02-04T05:36:00;18.87;;;3.73;;
24859;SDS011;12936;52.006;4.350;2023-02-04T05:38:35;24.20;;;4.17;;
24859;SDS011;12936;52.006;4.350;2023-02-04T05:41:06;24.13;;;3.70;;
24859;SDS011;12936;52.006;4.350;2023-02-04T05:43:36;23.07;;;3.67;;
24859;SDS011;12936;52.006;4.350;2023-02-04T05:46:12;25.97;;;4.67;;
24859;SDS011;12936;52.006;4.350;2023-02-04T05:48:40;23.00;;;3.53;;
24859;SDS011;12936;52.006;4.350;2023-02-04T05:51:10;19.50;;;4.03;;
24859;SDS011;12936;52.006;4.350;2023-02-04T05:53:38;25.30;;;4.00;;
24859;SDS011;12936;52.006;4.350;2023-02-04T05:56:06;23.47;;;4.00;;
24859;SDS011;12936;52.006;4.350;2023-02-04T05:58:34;20.23;;;3.63;;
24859;SDS011;12936;52.006;4.350;2023-02-04T06:01:05;22.13;;;3.73;;
24859;SDS011;12936;52.006;4.350;2023-02-04T06:03:34;23.80;;;3.90;;
24859;SDS011;12936;52.006;4.350;2023-02-04T06:06:02;30.53;;;4.63;;
24859;SDS011;12936;52.006;4.350;2023-02-04T06:08:30;18.07;;;3.60;;
24859;SDS011;12936;52.006;4.350;2023-02-04T06:10:58;20.30;;;4.00;;
24859;SDS011;12936;52.006;4.350;2023-02-04T06:13:26;23.17;;;4.07;;
24859;SDS011;12936;52.006;4.350;2023-02-04T06:15:54;28.07;;;3.80;;
24859;SDS011;12936;52.006;4.350;2023-02-04T06:18:23;24.37;;;5.13;;
24859;SDS011;12936;52.006;4.350;2023-02-04T06:20:52;22.60;;;3.37;;
24859;SDS011;12936;52.006;4.350;2023-02-04T06:23:20;27.17;;;3.77;;
24859;SDS011;12936;52.006;4.350;2023-02-04T06:25:48;19.70;;;4.27;;
24859;SDS011;12936;52.006;4.350;2023-02-04T06:28:16;26.00;;;4.17;;
24859;SDS011;12936;52.006;4.350;2023-02-04T06:30:44;20.40;;;3.53;;
24859;SDS011;12936;52.006;4.350;2023-02-04T06:33:12;18.33;;;3.50;;
24859;SDS011;12936;52.006;4.350;2023-02-04T06:35:40;19.30;;;3.53;;
24859;SDS011;12936;52.006;4.350;2023-02-04T06:38:10;28.80;;;4.20;;
24859;SDS011;12936;52.006;4.350;2023-02-04T06:40:38;19.07;;;3.70;;
24859;SDS011;12936;52.006;4.350;2023-02-04T06:43:06;20.47;;;3.97;;
24859;SDS011;12936;52.006;4.350;2023-02-04T06:45:34;21.60;;;4.83;;
24859;SDS011;12936;52.006;4.350;2023-02-04T06:48:02;25.43;;;4.47;;
24859;SDS011;12936;52.006;4.350;2023-02-04T06:50:31;18.80;;;3.53;;
24859;SDS011;12936;52.006;4.350;2023-02-04T06:52:59;23.83;;;5.17;;
24859;SDS011;12936;52.006;4.350;2023-02-04T06:55:28;25.27;;;4.87;;
24859;SDS011;12936;52.006;4.350;2023-02-04T06:57:56;18.90;;;4.37;;
24859;SDS011;12936;52.006;4.350;2023-02-04T07:00:24;21.97;;;4.17;;
24859;SDS011;12936;52.006;4.350;2023-02-04T07:02:53;21.13;;;4.57;;
24859;SDS011;12936;52.006;4.350;2023-02-04T07:05:21;22.53;;;4.00;;
24859;SDS011;12936;52.006;4.350;2023-02-04T07:07:50;29.07;;;4.83;;
24859;SDS011;12936;52.006;4.350;2023-02-04T07:10:18;25.03;;;5.00;;
24859;SDS011;12936;52.006;4.350;2023-02-04T07:12:48;19.67;;;4.27;;
24859;SDS011;12936;52.006;4.350;2023-02-04T07:15:16;23.83;;;4.00;;
24859;SDS011;12936;52.006;4.350;2023-02-04T07:17:44;19.97;;;4.17;;
24859;SDS011;12936;52.006;4.350;2023-02-04T07:20:12;17.80;;;4.27;;
24859;SDS011;12936;52.006;4.350;2023-02-04T07:22:40;19.13;;;3.83;;
24859;SDS011;12936;52.006;4.350;2023-02-04T07:25:08;20.00;;;4.23;;
24859;SDS011;12936;52.006;4.350;2023-02-04T07:27:40;20.17;;;4.00;;
24859;SDS011;12936;52.006;4.350;2023-02-04T07:30:10;32.63;;;4.83;;
24859;SDS011;12936;52.006;4.350;2023-02-04T07:32:39;28.07;;;5.10;;
24859;SDS011;12936;52.006;4.350;2023-02-04T07:35:08;17.43;;;4.10;;
24859;SDS011;12936;52.006;4.350;2023-02-04T07:37:37;24.80;;;4.33;;
24859;SDS011;12936;52.006;4.350;2023-02-04T07:40:05;25.00;;;4.93;;
24859;SDS011;12936;52.006;4.350;2023-02-04T07:42:34;21.90;;;4.23;;
24859;SDS011;12936;52.006;4.350;2023-02-04T07:45:02;23.17;;;5.10;;
24859;SDS011;12936;52.006;4.350;2023-02-04T07:47:31;20.10;;;4.70;;
24859;SDS011;12936;52.006;4.350;2023-02-04T07:49:59;23.67;;;5.00;;
24859;SDS011;12936;52.006;4.350;2023-02-04T07:52:27;24.07;;;4.90;;
24859;SDS011;12936;52.006;4.350;2023-02-04T07:54:56;27.87;;;4.90;;
24859;SDS011;12936;52.006;4.350;2023-02-04T07:57:24;19.83;;;4.20;;
24859;SDS011;12936;52.006;4.350;2023-02-04T07:59:54;21.57;;;4.37;;
24859;SDS011;12936;52.006;4.350;2023-02-04T08:02:22;38.70;;;5.20;;
24859;SDS011;12936;52.006;4.350;2023-02-04T08:04:52;25.73;;;4.50;;
24859;SDS011;12936;52.006;4.350;2023-02-04T08:07:20;21.33;;;4.33;;
24859;SDS011;12936;52.006;4.350;2023-02-04T08:09:47;21.27;;;4.07;;
24859;SDS011;12936;52.006;4.350;2023-02-04T08:12:15;24.57;;;5.27;;
24859;SDS011;12936;52.006;4.350;2023-02-04T08:14:43;21.23;;;4.83;;
24859;SDS011;12936;52.006;4.350;2023-02-04T08:17:12;29.90;;;5.30;;
24859;SDS011;12936;52.006;4.350;2023-02-04T08:19:40;23.37;;;5.27;;
24859;SDS011;12936;52.006;4.350;2023-02-04T08:22:09;23.00;;;5.10;;
24859;SDS011;12936;52.006;4.350;2023-02-04T08:24:37;25.03;;;5.20;;
24859;SDS011;12936;52.006;4.350;2023-02-04T08:27:05;22.20;;;5.27;;
24859;SDS011;12936;52.006;4.350;2023-02-04T08:29:33;21.90;;;5.27;;
24859;SDS011;12936;52.006;4.350;2023-02-04T08:32:01;31.50;;;6.33;;
24859;SDS011;12936;52.006;4.350;2023-02-04T08:34:30;25.33;;;5.67;;
24859;SDS011;12936;52.006;4.350;2023-02-04T08:36:58;28.00;;;5.87;;
24859;SDS011;12936;52.006;4.350;2023-02-04T08:39:27;24.83;;;5.67;;
24859;SDS011;12936;52.006;4.350;2023-02-04T08:41:56;25.27;;;6.20;;
24859;SDS011;12936;52.006;4.350;2023-02-04T08:44:24;29.17;;;6.40;;
24859;SDS011;12936;52.006;4.350;2023-02-04T08:46:52;24.63;;;6.20;;
24859;SDS011;12936;52.006;4.350;2023-02-04T08:49:20;24.33;;;6.97;;
24859;SDS011;12936;52.006;4.350;2023-02-04T08:51:48;28.67;;;6.47;;
24859;SDS011;12936;52.006;4.350;2023-02-04T08:54:16;24.10;;;6.13;;
24859;SDS011;12936;52.006;4.350;2023-02-04T08:56:45;24.97;;;6.37;;
24859;SDS011;12936;52.006;4.350;2023-02-04T08:59:14;27.67;;;7.20;;
24859;SDS011;12936;52.006;4.350;2023-02-04T09:01:42;22.10;;;6.30;;
24859;SDS011;12936;52.006;4.350;2023-02-04T09:04:16;21.70;;;6.50;;
24859;SDS011;12936;52.006;4.350;2023-02-04T09:06:44;22.10;;;6.10;;
24859;SDS011;12936;52.006;4.350;2023-02-04T09:09:12;24.23;;;7.23;;
24859;SDS011;12936;52.006;4.350;2023-02-04T09:11:41;24.03;;;8.13;;
24859;SDS011;12936;52.006;4.350;2023-02-04T09:14:11;20.87;;;6.03;;
24859;SDS011;12936;52.006;4.350;2023-02-04T09:16:39;31.27;;;7.30;;
24859;SDS011;12936;52.006;4.350;2023-02-04T09:19:07;23.87;;;7.40;;
24859;SDS011;12936;52.006;4.350;2023-02-04T09:21:38;27.87;;;7.10;;
24859;SDS011;12936;52.006;4.350;2023-02-04T09:24:06;26.23;;;6.27;;
24859;SDS011;12936;52.006;4.350;2023-02-04T09:26:34;24.87;;;7.20;;
24859;SDS011;12936;52.006;4.350;2023-02-04T09:29:02;22.47;;;7.63;;
24859;SDS011;12936;52.006;4.350;2023-02-04T09:31:32;26.30;;;6.77;;
24859;SDS011;12936;52.006;4.350;2023-02-04T09:34:01;23.77;;;6.87;;
24859;SDS011;12936;52.006;4.350;2023-02-04T09:36:29;22.93;;;5.90;;
24859;SDS011;12936;52.006;4.350;2023-02-04T09:38:59;22.17;;;5.80;;
24859;SDS011;12936;52.006;4.350;2023-02-04T09:41:28;26.93;;;6.73;;
24859;SDS011;12936;52.006;4.350;2023-02-04T09:43:56;18.53;;;5.67;;
24859;SDS011;12936;52.006;4.350;2023-02-04T09:46:26;19.67;;;6.20;;
24859;SDS011;12936;52.006;4.350;2023-02-04T09:48:58;26.37;;;5.63;;
24859;SDS011;12936;52.006;4.350;2023-02-04T09:51:29;31.87;;;6.40;;
24859;SDS011;12936;52.006;4.350;2023-02-04T09:54:02;21.57;;;5.80;;
24859;SDS011;12936;52.006;4.350;2023-02-04T09:56:35;25.03;;;5.77;;
24859;SDS011;12936;52.006;4.350;2023-02-04T09:59:03;25.30;;;6.57;;
24859;SDS011;12936;52.006;4.350;2023-02-04T10:01:37;20.53;;;5.33;;
24859;SDS011;12936;52.006;4.350;2023-02-04T10:04:09;18.03;;;3.67;;
24859;SDS011;12936;52.006;4.350;2023-02-04T10:06:39;22.17;;;4.00;;
24859;SDS011;12936;52.006;4.350;2023-02-04T10:09:08;16.20;;;4.17;;
24859;SDS011;12936;52.006;4.350;2023-02-04T10:11:38;19.23;;;4.97;;
24859;SDS011;12936;52.006;4.350;2023-02-04T10:14:08;14.07;;;4.77;;
24859;SDS011;12936;52.006;4.350;2023-02-04T10:16:40;26.27;;;5.50;;
24859;SDS011;12936;52.006;4.350;2023-02-04T10:19:12;23.23;;;4.40;;
24859;SDS011;12936;52.006;4.350;2023-02-04T10:21:42;20.20;;;4.83;;
24859;SDS011;12936;52.006;4.350;2023-02-04T10:24:12;13.43;;;3.23;;
24859;SDS011;12936;52.006;4.350;2023-02-04T10:26:42;11.77;;;2.80;;
24859;SDS011;12936;52.006;4.350;2023-02-04T10:29:15;11.67;;;2.67;;
24859;SDS011;12936;52.006;4.350;2023-02-04T10:31:45;11.60;;;2.40;;
24859;SDS011;12936;52.006;4.350;2023-02-04T10:34:16;12.87;;;2.83;;
24859;SDS011;12936;52.006;4.350;2023-02-04T10:36:46;15.60;;;3.33;;
24859;SDS011;12936;52.006;4.350;2023-02-04T10:39:15;11.83;;;3.10;;
24859;SDS011;12936;52.006;4.350;2023-02-04T10:41:46;14.23;;;2.90;;
24859;SDS011;12936;52.006;4.350;2023-02-04T10:44:16;12.47;;;3.60;;
24859;SDS011;12936;52.006;4.350;2023-02-04T10:46:45;12.97;;;3.57;;
24859;SDS011;12936;52.006;4.350;2023-02-04T10:49:19;15.77;;;3.57;;
24859;SDS011;12936;52.006;4.350;2023-02-04T10:51:58;9.57;;;3.67;;
24859;SDS011;12936;52.006;4.350;2023-02-04T10:54:32;14.17;;;3.67;;
24859;SDS011;12936;52.006;4.350;2023-02-04T10:57:07;14.20;;;3.77;;
24859;SDS011;12936;52.006;4.350;2023-02-04T10:59:44;14.97;;;4.50;;
24859;SDS011;12936;52.006;4.350;2023-02-04T11:02:31;15.27;;;4.40;;
24859;SDS011;12936;52.006;4.350;2023-02-04T11:05:05;15.47;;;4.70;;
24859;SDS011;12936;52.006;4.350;2023-02-04T11:07:38;13.27;;;4.30;;
24859;SDS011;12936;52.006;4.350;2023-02-04T11:10:10;13.87;;;4.43;;
24859;SDS011;12936;52.006;4.350;2023-02-04T11:12:41;17.23;;;4.50;;
24859;SDS011;12936;52.006;4.350;2023-02-04T11:18:04;18.87;;;4.87;;
24859;SDS011;12936;52.006;4.350;2023-02-04T11:20:35;20.57;;;5.63;;
24859;SDS011;12936;52.006;4.350;2023-02-04T11:23:15;15.10;;;5.40;;
24859;SDS011;12936;52.006;4.350;2023-02-04T11:26:12;19.30;;;6.07;;
24859;SDS011;12936;52.006;4.350;2023-02-04T11:28:54;16.27;;;5.20;;
24859;SDS011;12936;52.006;4.350;2023-02-04T11:31:41;16.93;;;6.10;;
24859;SDS011;12936;52.006;4.350;2023-02-04T11:34:23;18.70;;;5.30;;
24859;SDS011;12936;52.006;4.350;2023-02-04T11:37:12;17.43;;;4.83;;
24859;SDS011;12936;52.006;4.350;2023-02-04T11:39:46;13.00;;;4.33;;
24859;SDS011;12936;52.006;4.350;2023-02-04T11:42:16;18.40;;;4.20;;
24859;SDS011;12936;52.006;4.350;2023-02-04T11:44:47;15.43;;;4.40;;
24859;SDS011;12936;52.006;4.350;2023-02-04T11:47:19;12.63;;;3.67;;
24859;SDS011;12936;52.006;4.350;2023-02-04T11:49:52;12.53;;;3.23;;
24859;SDS011;12936;52.006;4.350;2023-02-04T11:52:23;14.67;;;3.40;;
24859;SDS011;12936;52.006;4.350;2023-02-04T11:54:52;11.53;;;3.07;;
24859;SDS011;12936;52.006;4.350;2023-02-04T11:57:21;12.63;;;3.30;;
24859;SDS011;12936;52.006;4.350;2023-02-04T11:59:49;13.70;;;3.70;;
24859;SDS011;12936;52.006;4.350;2023-02-04T12:02:18;13.67;;;3.33;;
24859;SDS011;12936;52.006;4.350;2023-02-04T12:04:52;13.67;;;3.40;;
24859;SDS011;12936;52.006;4.350;2023-02-04T12:07:26;12.33;;;3.03;;
24859;SDS011;12936;52.006;4.350;2023-02-04T12:09:56;5.40;;;2.13;;
24859;SDS011;12936;52.006;4.350;2023-02-04T12:12:26;13.03;;;3.53;;
24859;SDS011;12936;52.006;4.350;2023-02-04T12:14:56;13.13;;;2.77;;
24859;SDS011;12936;52.006;4.350;2023-02-04T12:17:27;12.87;;;2.93;;
24859;SDS011;12936;52.006;4.350;2023-02-04T12:19:55;11.40;;;2.93;;
24859;SDS011;12936;52.006;4.350;2023-02-04T12:22:24;12.50;;;2.83;;
24859;SDS011;12936;52.006;4.350;2023-02-04T12:24:53;10.50;;;2.57;;
24859;SDS011;12936;52.006;4.350;2023-02-04T12:27:21;15.37;;;2.93;;
24859;SDS011;12936;52.006;4.350;2023-02-04T12:29:49;13.70;;;3.40;;
24859;SDS011;12936;52.006;4.350;2023-02-04T12:32:17;9.90;;;2.50;;
24859;SDS011;12936;52.006;4.350;2023-02-04T12:34:45;10.60;;;2.73;;
24859;SDS011;12936;52.006;4.350;2023-02-04T12:37:13;10.43;;;3.43;;
24859;SDS011;12936;52.006;4.350;2023-02-04T12:39:42;15.37;;;3.37;;
24859;SDS011;12936;52.006;4.350;2023-02-04T12:42:10;13.53;;;3.57;;
24859;SDS011;12936;52.006;4.350;2023-02-04T12:44:38;11.60;;;3.00;;
24859;SDS011;12936;52.006;4.350;2023-02-04T12:47:08;11.47;;;3.20;;
24859;SDS011;12936;52.006;4.350;2023-02-04T12:49:36;13.57;;;3.20;;
24859;SDS011;12936;52.006;4.350;2023-02-04T12:52:04;10.10;;;3.40;;
24859;SDS011;12936;52.006;4.350;2023-02-04T12:54:32;10.83;;;3.10;;
24859;SDS011;12936;52.006;4.350;2023-02-04T12:57:02;15.23;;;3.00;;
24859;SDS011;12936;52.006;4.350;2023-02-04T12:59:30;13.00;;;3.87;;
24859;SDS011;12936;52.006;4.350;2023-02-04T13:01:58;10.83;;;3.47;;
24859;SDS011;12936;52.006;4.350;2023-02-04T13:04:27;14.73;;;3.70;;
24859;SDS011;12936;52.006;4.350;2023-02-04T13:06:55;18.93;;;3.70;;
24859;SDS011;12936;52.006;4.350;2023-02-04T13:09:23;14.87;;;3.73;;
24859;SDS011;12936;52.006;4.350;2023-02-04T13:11:51;16.00;;;4.13;;
24859;SDS011;12936;52.006;4.350;2023-02-04T13:14:21;14.67;;;4.97;;
24859;SDS011;12936;52.006;4.350;2023-02-04T13:16:49;19.10;;;4.40;;
24859;SDS011;12936;52.006;4.350;2023-02-04T13:19:17;16.13;;;4.53;;
24859;SDS011;12936;52.006;4.350;2023-02-04T13:21:45;16.73;;;5.13;;
24859;SDS011;12936;52.006;4.350;2023-02-04T13:24:13;16.73;;;4.53;;
24859;SDS011;12936;52.006;4.350;2023-02-04T13:26:42;12.40;;;4.20;;
24859;SDS011;12936;52.006;4.350;2023-02-04T13:29:10;12.27;;;4.70;;
24859;SDS011;12936;52.006;4.350;2023-02-04T13:31:40;16.13;;;5.60;;
24859;SDS011;12936;52.006;4.350;2023-02-04T13:34:08;20.97;;;6.03;;
24859;SDS011;12936;52.006;4.350;2023-02-04T13:36:36;15.53;;;6.13;;
24859;SDS011;12936;52.006;4.350;2023-02-04T13:39:04;13.97;;;5.50;;
24859;SDS011;12936;52.006;4.350;2023-02-04T13:41:32;14.43;;;5.97;;
24859;SDS011;12936;52.006;4.350;2023-02-04T13:44:03;12.57;;;5.17;;
24859;SDS011;12936;52.006;4.350;2023-02-04T13:46:31;15.73;;;6.00;;
24859;SDS011;12936;52.006;4.350;2023-02-04T13:49:01;15.27;;;6.60;;
24859;SDS011;12936;52.006;4.350;2023-02-04T13:51:29;16.30;;;6.90;;
24859;SDS011;12936;52.006;4.350;2023-02-04T13:53:57;17.90;;;6.47;;
24859;SDS011;12936;52.006;4.350;2023-02-04T13:56:26;16.47;;;6.33;;
24859;SDS011;12936;52.006;4.350;2023-02-04T13:58:54;18.70;;;6.97;;
24859;SDS011;12936;52.006;4.350;2023-02-04T14:01:22;20.57;;;8.37;;
24859;SDS011;12936;52.006;4.350;2023-02-04T14:03:50;16.20;;;7.40;;
24859;SDS011;12936;52.006;4.350;2023-02-04T14:06:20;17.17;;;7.67;;
24859;SDS011;12936;52.006;4.350;2023-02-04T14:08:48;22.43;;;8.33;;
24859;SDS011;12936;52.006;4.350;2023-02-04T14:11:16;21.37;;;8.00;;
24859;SDS011;12936;52.006;4.350;2023-02-04T14:13:44;19.87;;;7.93;;
24859;SDS011;12936;52.006;4.350;2023-02-04T14:16:13;19.73;;;7.60;;
24859;SDS011;12936;52.006;4.350;2023-02-04T14:18:41;19.83;;;8.33;;
24859;SDS011;12936;52.006;4.350;2023-02-04T14:21:09;20.17;;;9.33;;
24859;SDS011;12936;52.006;4.350;2023-02-04T14:23:38;18.03;;;8.63;;
24859;SDS011;12936;52.006;4.350;2023-02-04T14:26:07;20.90;;;9.27;;
24859;SDS011;12936;52.006;4.350;2023-02-04T14:28:35;26.47;;;10.20;;
24859;SDS011;12936;52.006;4.350;2023-02-04T14:31:03;23.30;;;10.17;;
24859;SDS011;12936;52.006;4.350;2023-02-04T14:33:31;20.80;;;9.67;;
24859;SDS011;12936;52.006;4.350;2023-02-04T14:35:59;22.53;;;9.77;;
24859;SDS011;12936;52.006;4.350;2023-02-04T14:38:27;16.07;;;9.80;;
24859;SDS011;12936;52.006;4.350;2023-02-04T14:40:58;23.83;;;10.97;;
24859;SDS011;12936;52.006;4.350;2023-02-04T14:43:26;18.17;;;9.47;;
24859;SDS011;12936;52.006;4.350;2023-02-04T14:45:56;21.67;;;10.07;;
24859;SDS011;12936;52.006;4.350;2023-02-04T14:48:24;19.30;;;10.23;;
24859;SDS011;12936;52.006;4.350;2023-02-04T14:50:53;26.50;;;11.20;;
24859;SDS011;12936;52.006;4.350;2023-02-04T14:53:21;22.93;;;11.00;;
24859;SDS011;12936;52.006;4.350;2023-02-04T14:55:49;18.37;;;10.80;;
24859;SDS011;12936;52.006;4.350;2023-02-04T14:58:19;19.13;;;11.27;;